Nearby METAR Reports

 

KMTN - Baltimore/Martin, Maryland, USA
Distance from station: SSE 8mi, 13km
Updated: Tue, 31-Mar-2015 3:54pm EDT
Mostly cloudy
Mostly cloudy
 Wind from N
Wind: N 7 mph , 11 km/h
Temperature: 57°F , 14°C
Dew Point: 37°F , 3°C
Humidity: 48%
Barometer: 29.64 inHg , 1003.7 hPa
Clouds: Mostly cloudy
Visibility: 10 miles , 16 km
Cloud details: Partly cloudy 7000 ft
Mostly cloudy 9000 ft
2015/03/31 19:54 KMTN 311954Z 35006KT 10SM SCT070 BKN090 14/03 A2964
KDMH - Baltimore/Dwntwn, Maryland, USA
Distance from station: SW 12mi, 19km
Updated: Tue, 31-Mar-2015 3:54pm EDT

 
Temperature: 66°F , 19°C
Dew Point: 27°F , -3°C
Humidity: 22%
Barometer: 29.61 inHg , 1002.7 hPa
2015/03/31 19:54 KDMH 311954Z AUTO 19/M03 A2961 RMK AO1 SLP028 T01891028
 
KBWI - Balto/Wash Intl, Maryland, USA
Distance from station: SSW 20mi, 33km
Updated: Tue, 31-Mar-2015 3:54pm EDT
Mostly cloudy
Mostly cloudy
 Wind from WSW
Wind: WSW 13 mph , 20 km/h, Gust: 18 mph , 30 km/h
Temperature: 64°F , 18°C
Dew Point: 27°F , -3°C
Humidity: 24%
Barometer: 29.59 inHg , 1002 hPa
Clouds: Mostly cloudy
Visibility: 10 miles , 16 km
Cloud details: Few Clouds 8000 ft
Mostly cloudy 9500 ft
2015/03/31 19:54 KBWI 311954Z 25011G16KT 10SM FEW080 BKN095 18/M03 A2959 RMK AO2 PK WND 20026/1900 SLP021 VIRGA ALQDS T01831028
KDMW - Carroll Cnty, Maryland, USA
Distance from station: WNW 30mi, 48km
Updated: Tue, 31-Mar-2015 4:35pm EDT
Light rain, Mostly cloudy
Light rain, Mostly cloudy
 Wind from SSE
Wind: SSE 3 mph , 6 km/h
Temperature: 54°F , 12°C
Dew Point: 45°F , 7°C
Humidity: 72%
Barometer: 29.60 inHg , 1002.4 hPa
Summary: Light rain
Clouds: Mostly cloudy
Visibility: 10 miles , 16 km
Cloud details: Mostly cloudy 9000 ft
2015/03/31 20:35 KDMW 312035Z AUTO 16003KT 10SM -RA BKN090 12/07 A2960 RMK AO2
 
KNAK - Annapolis/Naval, Maryland, USA
Distance from station: S 30mi, 48km
Updated: Tue, 31-Mar-2015 3:54pm EDT
Overcast
Overcast
 Wind from ESE
Wind: ESE 12 mph , 19 km/h
Temperature: 48°F , 9°C
Wind Chill: 43°F , 6°C
Dew Point: 39°F , 4°C
Humidity: 71%
Barometer: 29.59 inHg , 1002 hPa
Clouds: Overcast
Visibility: 10 miles , 16 km
Cloud details: Overcast 10000 ft
2015/03/31 19:54 KNAK 311954Z AUTO 12010KT 10SM OVC100 09/04 A2959 RMK AO2 SLP022 T00890039
KW29 - Stevensville, Maryland, USA
Distance from station: SSE 31mi, 50km
Updated: Tue, 31-Mar-2015 4:37pm EDT

 Wind from SSW
Wind: SSW 3 mph , 6 km/h
Temperature: 59°F , 15°C
Dew Point: 32°F , 0°C
Humidity: 36%
Barometer: 29.62 inHg , 1003 hPa
Visibility: 10 miles , 16 km
2015/03/31 20:37 KW29 312037Z AUTO 20003KT 10SM 15/00 A2962 RMK AO1
 
KCGS - College Park, Maryland, USA
Distance from station: SW 38mi, 61km
Updated: Tue, 31-Mar-2015 4:35pm EDT
Overcast
Overcast
 Wind from NW
Wind: NW 10 mph , 17 km/h, Gust: 18 mph , 30 km/h
Temperature: 66°F , 19°C
Dew Point: 32°F , 0°C
Humidity: 28%
Barometer: 29.59 inHg , 1002 hPa
Clouds: Overcast
Visibility: 10 miles , 16 km
Cloud details: Partly cloudy 6500 ft
Partly cloudy 7500 ft
Overcast 9000 ft
2015/03/31 20:35 KCGS 312035Z AUTO 31009G16KT 10SM SCT065 SCT075 OVC090 19/00 A2959 RMK AO1
KGAI - Gaithersburg, Maryland, USA
Distance from station: WSW 40mi, 65km
Updated: Tue, 31-Mar-2015 4:35pm EDT
Overcast
Overcast
 Wind from E
Wind: E 10 mph , 17 km/h, Gust: 16 mph , 26 km/h
Temperature: 55°F , 13°C
Dew Point: 41°F , 5°C
Humidity: 59%
Barometer: 29.61 inHg , 1002.7 hPa
Clouds: Overcast
Visibility: 10 miles , 16 km
Cloud details: Partly cloudy 6500 ft
Mostly cloudy 7000 ft
Overcast 8500 ft
2015/03/31 20:35 KGAI 312035Z AUTO 09009G14KT 10SM SCT065 BKN070 OVC085 13/05 A2961 RMK AO1 P0001
 
KTHV - York, Pennsylvania, USA
Distance from station: NNW 40mi, 65km
Updated: Tue, 31-Mar-2015 3:53pm EDT
Mostly cloudy
Mostly cloudy
 Wind from S
Wind: S 6 mph , 9 km/h
Temperature: 54°F , 12°C
Dew Point: 43°F , 6°C
Humidity: 67%
Barometer: 29.62 inHg , 1003 hPa
Clouds: Mostly cloudy
Visibility: 10 miles , 16 km
Cloud details: Few Clouds 3800 ft
Few Clouds 4900 ft
Mostly cloudy 12000 ft
2015/03/31 19:53 KTHV 311953Z AUTO 17005KT 10SM FEW038 FEW049 BKN120 12/06 A2962 RMK AO2 RAE36 SLP032 P0001 T01220056
KFDK - Frederick, Maryland, USA
Distance from station: W 47mi, 75km
Updated: Tue, 31-Mar-2015 3:45pm EDT
Mostly cloudy
Mostly cloudy
 Wind from SSE
Wind: SSE 13 mph , 20 km/h, Gust: 20 mph , 31 km/h
Temperature: 57°F , 14°C
Dew Point: 39°F , 4°C
Humidity: 51%
Barometer: 29.61 inHg , 1002.7 hPa
Clouds: Mostly cloudy
Visibility: 10 miles , 16 km
Cloud details: Partly cloudy 2000 ft
Mostly cloudy 7000 ft
2015/03/31 19:45 KFDK 311945Z 15011G17KT 10SM SCT020 BKN070 14/04 A2961
 
KESN - Easton/Newnam, Maryland, USA
Distance from station: SSE 48mi, 78km
Updated: Tue, 31-Mar-2015 3:55pm EDT
Partly cloudy
Partly cloudy
 Wind from SSW
Wind: SSW 16 mph , 26 km/h, Gust: 25 mph , 41 km/h
Temperature: 66°F , 19°C
Dew Point: 36°F , 2°C
Humidity: 32%
Barometer: 29.64 inHg , 1003.7 hPa
Clouds: Partly cloudy
Visibility: 10 miles , 16 km
Cloud details: Partly cloudy 20000 ft
2015/03/31 19:55 KESN 311955Z 20014G22KT 10SM SCT200 19/02 A2964
KDCA - Washington/Natl, Washington D.c., USA
Distance from station: SW 49mi, 79km
Updated: Tue, 31-Mar-2015 3:52pm EDT
Mostly cloudy
Mostly cloudy
 Wind from SSW
Wind: SSW 18 mph , 30 km/h, Gust: 29 mph , 46 km/h
Temperature: 70°F , 21°C
Dew Point: 30°F , -1°C
Humidity: 23%
Barometer: 29.58 inHg , 1001.7 hPa
Clouds: Mostly cloudy
Visibility: 10 miles , 16 km
Cloud details: Mostly cloudy 10000 ft
Mostly cloudy 15000 ft
Mostly cloudy 25000 ft
2015/03/31 19:52 KDCA 311952Z 21016G25KT 10SM BKN100 BKN150 BKN250 21/M01 A2958 RMK AO2 PK WND 22029/1936 SLP016 T02111011
 
KLNS - Lancaster, Pennsylvania, USA
Distance from station: N 49mi, 79km
Updated: Tue, 31-Mar-2015 3:53pm EDT
Light rain, Overcast
Light rain, Overcast
 Wind from NE
Wind: NE 10 mph , 17 km/h
Temperature: 45°F , 7°C
Wind Chill: 40°F , 4°C
Dew Point: 37°F , 3°C
Humidity: 76%
Barometer: 29.65 inHg , 1004.1 hPa
Summary: Light rain
Clouds: Overcast
Visibility: 10 miles , 16 km
Cloud details: Mostly cloudy 4700 ft
Overcast 8000 ft
2015/03/31 19:53 KLNS 311953Z 04009KT 10SM -RA BKN047 OVC080 07/03 A2965 RMK AO2 SLP041 P0001 T00720028
KILG - Wilmington, Delaware, USA
Distance from station: ENE 50mi, 81km
Updated: Tue, 31-Mar-2015 3:51pm EDT
Overcast
Overcast
 Wind from calm
Wind: Calm
Temperature: 55°F , 13°C
Dew Point: 32°F , 0°C
Humidity: 41%
Barometer: 29.66 inHg , 1004.4 hPa
Clouds: Overcast
Visibility: 10 miles , 16 km
Cloud details: Overcast 7500 ft
2015/03/31 19:51 KILG 311951Z 00000KT 10SM OVC075 13/00 A2966 RMK AO2 SLP042 T01330000